Time;durP1;ratioP1;P1;durP2;ratioP2;P2;SDS_P1;SDS_P2;PMS_P1;PMS_P2;Temp;Humidity;BMP_temperature;BMP_pressure;BME280_temperature;BME280_humidity;BME280_pressure;Samples;Min_cycle;Max_cycle;Signal;HPM_P1;HPM_P2
2021/09/27 00:02:01;;;;;;;11.60;5.70;;;25.30;99.90;;;;;;1859029;76;21228;-89
2021/09/27 00:04:31;;;;;;;12.43;5.87;;;25.30;99.90;;;;;;1860538;76;21171;-89
2021/09/27 00:07:10;;;;;;;9.38;4.90;;;25.30;99.90;;;;;;1866134;75;21721;-89
2021/09/27 00:09:43;;;;;;;9.58;5.08;;;25.30;99.90;;;;;;1943104;72;21112;-90
2021/09/27 00:12:16;;;;;;;10.90;5.10;;;25.30;99.90;;;;;;1943887;72;21188;-90
2021/09/27 00:14:51;;;;;;;8.00;4.75;;;25.40;99.90;;;;;;1921717;72;21068;-89
2021/09/27 00:17:22;;;;;;;14.90;6.22;;;25.40;99.90;;;;;;1894976;72;21130;-89
2021/09/27 00:19:58;;;;;;;8.45;4.87;;;25.40;99.90;;;;;;1943959;72;21270;-88
2021/09/27 00:22:33;;;;;;;12.35;5.78;;;25.50;99.90;;;;;;1923735;73;21130;-88
2021/09/27 00:25:09;;;;;;;11.57;4.42;;;25.50;99.90;;;;;;1939737;72;21167;-90
2021/09/27 00:30:51;;;;;;;;;;;;;;;;;;;;;
2021/09/27 00:33:19;;;;;;;8.25;4.47;;;25.60;99.90;;;;;;1818755;77;21115;-89
2021/09/27 00:35:59;;;;;;;;;;;25.70;99.90;;;;;;1819324;77;21181;-91
2021/09/27 00:38:39;;;;;;;6.78;4.28;;;25.70;99.90;;;;;;1807407;79;20200;-89
2021/09/27 00:41:16;;;;;;;7.15;4.10;;;25.80;99.90;;;;;;1824183;77;21187;-90
2021/09/27 00:43:48;;;;;;;6.62;4.45;;;25.80;99.90;;;;;;1805806;78;21224;-89
2021/09/27 00:46:23;;;;;;;8.73;3.90;;;25.80;99.90;;;;;;1800636;78;21170;-89
2021/09/27 00:48:57;;;;;;;;;;;25.80;99.90;;;;;;1817521;78;21177;-91
2021/09/27 00:51:35;;;;;;;7.30;4.17;;;25.90;99.90;;;;;;1820346;77;20234;-91
2021/09/27 00:54:24;;;;;;;8.55;3.83;;;25.90;99.90;;;;;;1800896;78;21159;-90
2021/09/27 00:57:50;;;;;;;7.05;4.12;;;25.90;99.90;;;;;;1690059;83;21196;-91
2021/09/27 01:00:43;;;;;;;7.72;4.37;;;26.00;99.90;;;;;;1645074;84;21196;-91
2021/09/27 01:03:10;;;;;;;7.45;4.80;;;26.00;99.90;;;;;;1654587;84;21250;-91
2021/09/27 01:05:51;;;;;;;9.68;3.98;;;26.00;99.90;;;;;;1681361;83;21891;-90
2021/09/27 01:09:05;;;;;;;7.47;4.33;;;26.00;99.90;;;;;;1676555;82;21152;-89
2021/09/27 01:14:54;;;;;;;9.33;5.15;;;26.10;99.90;;;;;;1633039;84;21110;-91
2021/09/27 01:17:29;;;;;;;14.20;6.40;;;26.20;99.90;;;;;;1665278;85;21292;-91
2021/09/27 01:20:02;;;;;;;5.92;4.28;;;26.20;99.90;;;;;;1661490;83;21209;-91
2021/09/27 01:22:35;;;;;;;7.92;4.53;;;26.30;99.90;;;;;;1706935;82;21248;-90
2021/09/27 01:25:12;;;;;;;12.05;6.00;;;26.40;99.90;;;;;;1741836;81;21214;-90
2021/09/27 01:27:46;;;;;;;7.53;4.47;;;26.40;99.90;;;;;;1743375;81;21257;-91
2021/09/27 01:30:32;;;;;;;10.32;4.90;;;26.50;99.90;;;;;;1752509;80;21127;-91
2021/09/27 01:33:03;;;;;;;8.88;5.33;;;26.50;99.90;;;;;;1742299;81;21232;-79
2021/09/27 01:35:39;;;;;;;6.28;4.30;;;26.50;99.90;;;;;;1707751;82;21139;-80
2021/09/27 01:38:13;;;;;;;7.60;4.00;;;26.50;99.90;;;;;;1689925;82;21218;-79
2021/09/27 01:40:46;;;;;;;8.35;4.15;;;26.60;99.90;;;;;;1745964;80;21297;-77
2021/09/27 01:43:20;;;;;;;9.25;4.90;;;26.60;99.90;;;;;;1740071;80;21251;-79
2021/09/27 01:45:53;;;;;;;11.80;4.40;;;26.60;99.90;;;;;;1734655;81;21137;-79
2021/09/27 01:48:29;;;;;;;6.70;4.10;;;26.60;99.90;;;;;;1716194;81;21834;-79
2021/09/27 01:51:08;;;;;;;6.53;4.67;;;26.70;99.90;;;;;;1791058;75;21195;-80
2021/09/27 01:53:50;;;;;;;5.90;4.03;;;26.70;99.90;;;;;;1927260;73;21062;-79
2021/09/27 01:56:24;;;;;;;8.83;5.67;;;26.70;99.90;;;;;;1940068;72;21117;-80
2021/09/27 01:58:57;;;;;;;5.95;4.03;;;26.70;99.90;;;;;;1947022;73;21124;-82
2021/09/27 02:01:31;;;;;;;5.65;3.67;;;26.80;99.90;;;;;;1944549;72;21558;-78
2021/09/27 02:04:04;;;;;;;6.97;3.65;;;26.80;99.90;;;;;;1883810;75;21964;-78
2021/09/27 02:06:37;;;;;;;9.80;4.05;;;26.80;99.90;;;;;;1941477;72;21174;-81
2021/09/27 02:09:11;;;;;;;6.50;3.67;;;26.90;99.90;;;;;;1943588;72;21093;-82
2021/09/27 02:11:45;;;;;;;6.10;3.90;;;27.00;99.90;;;;;;1875988;75;21599;-82
2021/09/27 02:14:18;;;;;;;4.42;3.25;;;27.00;99.90;;;;;;1947937;72;21174;-81
2021/09/27 02:17:00;;;;;;;6.20;3.80;;;27.10;99.90;;;;;;1953828;72;21112;-82
2021/09/27 02:19:33;;;;;;;6.47;3.70;;;27.20;99.90;;;;;;1847636;75;21207;-81
2021/09/27 02:25:33;;;;;;;7.50;3.67;;;27.30;99.90;;;;;;1809157;77;21167;-83
2021/09/27 02:28:04;;;;;;;7.35;3.33;;;27.40;99.90;;;;;;1812741;77;21158;-80
2021/09/27 02:30:37;;;;;;;6.58;3.30;;;27.40;99.90;;;;;;1808298;77;21226;-80
2021/09/27 02:33:10;;;;;;;9.13;3.47;;;27.40;99.90;;;;;;1788928;77;21290;-80
2021/09/27 02:35:44;;;;;;;9.23;3.95;;;27.50;99.90;;;;;;1795709;78;21174;-80
2021/09/27 02:38:17;;;;;;;5.97;3.52;;;27.50;99.90;;;;;;1809952;78;21771;-81
2021/09/27 02:40:50;;;;;;;7.65;3.70;;;27.50;99.90;;;;;;1769664;79;21274;-80
2021/09/27 02:43:21;;;;;;;6.12;3.52;;;27.40;99.90;;;;;;1765694;80;21238;-82
2021/09/27 02:45:53;;;;;;;5.67;3.92;;;27.40;99.90;;;;;;1769646;80;21159;-83
2021/09/27 02:48:35;;;;;;;5.25;3.50;;;27.40;99.90;;;;;;1778687;79;21226;-83
2021/09/27 02:50:59;;;;;;;6.17;3.92;;;27.40;99.90;;;;;;1767478;80;21261;-81
2021/09/27 02:53:37;;;;;;;5.70;3.40;;;27.40;99.90;;;;;;1774591;80;21171;-82
2021/09/27 02:56:12;;;;;;;6.87;3.37;;;27.50;99.90;;;;;;1784166;77;21605;-85
2021/09/27 02:58:45;;;;;;;7.53;3.70;;;27.60;99.90;;;;;;1852655;76;21720;-83
2021/09/27 03:01:18;;;;;;;6.20;4.00;;;27.60;99.90;;;;;;1860527;76;21239;-82
2021/09/27 03:03:51;;;;;;;5.47;3.30;;;27.70;99.90;;;;;;1942111;73;21659;-81
2021/09/27 03:06:24;;;;;;;7.72;4.03;;;27.80;99.90;;;;;;1937675;72;21147;-82
2021/09/27 03:08:58;;;;;;;6.40;3.67;;;27.90;99.90;;;;;;1946719;72;21149;-82
2021/09/27 03:11:31;;;;;;;6.08;3.67;;;28.10;99.90;;;;;;1947272;72;21166;-83
2021/09/27 03:14:04;;;;;;;5.58;3.98;;;28.20;99.90;;;;;;1942938;72;21155;-84
2021/09/27 03:16:37;;;;;;;7.80;4.25;;;28.30;99.90;;;;;;1941752;73;21668;-83
2021/09/27 03:19:11;;;;;;;8.43;3.92;;;28.40;99.90;;;;;;1925847;72;21072;-83
2021/09/27 03:21:44;;;;;;;6.45;3.75;;;28.40;99.90;;;;;;1919122;72;21143;-82
2021/09/27 03:24:17;;;;;;;7.45;3.95;;;28.60;99.90;;;;;;1925948;72;21125;-83
2021/09/27 03:26:50;;;;;;;6.92;3.35;;;28.70;99.90;;;;;;1889346;73;21119;-83
2021/09/27 03:29:23;;;;;;;7.35;4.00;;;28.80;99.90;;;;;;1942896;72;21164;-83
2021/09/27 03:31:57;;;;;;;6.92;3.90;;;28.80;99.90;;;;;;1918441;72;21183;-83
2021/09/27 03:37:34;;;;;;;5.10;3.85;;;28.90;99.90;;;;;;1940962;72;21727;-82
2021/09/27 03:40:07;;;;;;;5.92;3.58;;;28.90;99.90;;;;;;1922618;73;21195;-84
2021/09/27 03:42:40;;;;;;;5.67;3.80;;;29.00;99.90;;;;;;1931178;73;21174;-82
2021/09/27 03:45:21;;;;;;;6.05;3.62;;;29.00;99.90;;;;;;1936103;73;21591;-78
2021/09/27 03:48:09;;;;;;;6.42;3.67;;;29.00;99.90;;;;;;1856905;74;21194;-82
2021/09/27 03:50:45;;;;;;;9.48;4.33;;;29.10;99.90;;;;;;1936540;73;21093;-81
2021/09/27 03:53:21;;;;;;;5.55;3.60;;;29.10;99.90;;;;;;1884382;75;21140;-84
2021/09/27 04:05:43;;;;;;;4.75;3.00;;;29.30;99.90;;;;;;1940614;72;21156;-83
2021/09/27 04:08:16;;;;;;;7.03;3.52;;;29.40;99.90;;;;;;1931319;73;21143;-82
2021/09/27 04:10:51;;;;;;;8.43;3.83;;;29.50;99.90;;;;;;1937288;73;21062;-85
2021/09/27 04:13:24;;;;;;;6.95;3.25;;;29.60;99.90;;;;;;1933120;72;21525;-84
2021/09/27 04:16:06;;;;;;;5.33;3.90;;;29.60;99.90;;;;;;1944124;73;21135;-83
2021/09/27 04:18:44;;;;;;;5.22;3.98;;;29.60;99.90;;;;;;1937992;73;21157;-83
2021/09/27 04:21:20;;;;;;;6.83;3.80;;;30.00;99.90;;;;;;1882482;73;22095;-82
2021/09/27 04:24:00;;;;;;;4.92;3.35;;;30.10;99.90;;;;;;1873237;74;21670;-83
2021/09/27 04:26:37;;;;;;;7.22;3.30;;;30.20;99.90;;;;;;1872269;75;21240;-84
2021/09/27 04:29:15;;;;;;;5.20;3.08;;;30.60;99.90;;;;;;1878524;75;21249;-82
2021/09/27 04:31:53;;;;;;;7.83;3.10;;;;;;;;;;1933431;72;21621;-84
2021/09/27 04:34:29;;;;;;;3.87;3.08;;;30.80;99.90;;;;;;1924804;73;21096;-84
2021/09/27 04:37:03;;;;;;;5.40;3.02;;;30.90;99.90;;;;;;1923503;73;21191;-84
2021/09/27 04:39:39;;;;;;;4.90;3.30;;;30.80;96.70;;;;;;1947740;72;21092;-84
2021/09/27 04:42:14;;;;;;;4.22;3.17;;;30.70;97.00;;;;;;1941138;73;21116;-84
2021/09/27 04:44:47;;;;;;;7.72;4.42;;;30.70;96.60;;;;;;1939309;73;21804;-81
2021/09/27 04:50:29;;;;;;;5.60;3.50;;;30.90;97.00;;;;;;1882719;75;21124;-84
2021/09/27 04:53:01;;;;;;;5.00;2.90;;;31.00;97.10;;;;;;1891332;73;21135;-84
2021/09/27 04:55:36;;;;;;;4.12;2.70;;;31.20;96.60;;;;;;1856487;75;21237;-83
2021/09/27 04:58:09;;;;;;;4.08;2.75;;;31.50;99.90;;;;;;1874811;74;21903;-84
2021/09/27 05:00:42;;;;;;;4.15;2.90;;;31.00;99.90;;;;;;1958941;72;21225;-85
2021/09/27 05:03:16;;;;;;;5.35;2.77;;;31.30;96.40;;;;;;1934321;72;21161;-82
2021/09/27 05:05:49;;;;;;;4.15;3.00;;;31.30;96.30;;;;;;1940064;73;21093;-84
2021/09/27 05:11:44;;;;;;;6.37;3.30;;;31.50;95.30;;;;;;1891092;74;21738;-84
2021/09/27 05:14:28;;;;;;;5.45;3.35;;;31.40;95.10;;;;;;1926791;72;21185;-84
2021/09/27 05:17:14;;;;;;;5.42;2.92;;;31.30;95.70;;;;;;1942128;72;21638;-84
2021/09/27 05:23:11;;;;;;;4.33;2.75;;;31.20;95.50;;;;;;1940503;74;21178;-83
2021/09/27 05:26:02;;;;;;;3.65;2.52;;;31.30;95.30;;;;;;1885408;73;21268;-84
2021/09/27 05:28:53;;;;;;;5.17;2.87;;;31.50;94.70;;;;;;1809354;79;21178;-84
2021/09/27 05:31:26;;;;;;;5.87;3.12;;;31.60;94.10;;;;;;1805081;78;21177;-86
2021/09/27 05:34:02;;;;;;;6.15;2.75;;;31.70;94.50;;;;;;1754888;79;21110;-85
2021/09/27 05:36:40;;;;;;;4.95;2.77;;;31.90;94.10;;;;;;1813301;77;21633;-84
2021/09/27 05:39:19;;;;;;;5.25;2.35;;;33.20;94.90;;;;;;1809984;78;21158;-85
2021/09/27 05:41:56;;;;;;;5.08;3.02;;;32.00;93.80;;;;;;1800991;78;21218;-84
2021/09/27 05:50:22;;;;;;;4.55;2.27;;;32.10;93.00;;;;;;1821136;78;21206;-83
2021/09/27 05:52:55;;;;;;;3.37;2.17;;;31.90;93.10;;;;;;1818286;79;21578;-83
2021/09/27 05:55:34;;;;;;;4.72;2.25;;;31.70;93.20;;;;;;1805199;78;22047;-84
2021/09/27 05:58:08;;;;;;;5.05;2.60;;;31.50;94.00;;;;;;1789865;78;21197;-84
2021/09/27 06:03:46;;;;;;;4.25;2.30;;;31.50;93.90;;;;;;1767428;80;21105;-82
2021/09/27 06:06:21;;;;;;;4.30;2.22;;;31.70;93.30;;;;;;1892663;72;21142;-82
2021/09/27 06:08:54;;;;;;;3.40;2.25;;;31.60;92.90;;;;;;1906770;73;21617;-83
2021/09/27 06:11:27;;;;;;;6.10;2.70;;;31.50;92.90;;;;;;1935339;73;21274;-82
2021/09/27 06:14:00;;;;;;;3.95;2.30;;;31.40;93.00;;;;;;1917032;73;21165;-82
2021/09/27 06:16:33;;;;;;;4.37;2.58;;;31.20;93.60;;;;;;1927870;73;21167;-83
2021/09/27 06:19:13;;;;;;;5.45;2.60;;;31.20;94.10;;;;;;1938668;72;21163;-84
2021/09/27 06:21:51;;;;;;;3.47;2.20;;;31.20;94.30;;;;;;1942567;72;21112;-83
2021/09/27 06:24:21;;;;;;;4.97;2.60;;;31.20;94.20;;;;;;1950499;72;21174;-84
2021/09/27 06:26:54;;;;;;;4.25;2.35;;;31.20;94.40;;;;;;1954390;72;21225;-83
2021/09/27 06:29:28;;;;;;;4.22;2.60;;;31.20;93.80;;;;;;1930483;72;21165;-81
2021/09/27 06:35:18;;;;;;;3.58;2.42;;;31.30;93.10;;;;;;1891698;73;21124;-81
2021/09/27 06:38:16;;;;;;;4.05;2.30;;;31.30;93.70;;;;;;1895311;73;21161;-81
2021/09/27 06:40:50;;;;;;;3.52;2.25;;;31.20;93.80;;;;;;1898038;73;21150;-83
2021/09/27 06:43:26;;;;;;;3.42;2.50;;;31.20;94.00;;;;;;1939113;73;21069;-84
2021/09/27 06:45:58;;;;;;;4.58;3.05;;;31.10;94.30;;;;;;1892326;75;21661;-84
2021/09/27 06:48:34;;;;;;;5.12;2.90;;;31.00;94.60;;;;;;1843892;75;21186;-83
2021/09/27 06:51:40;;;;;;;5.87;2.70;;;30.90;94.90;;;;;;1886965;74;22368;-84
2021/09/27 07:13:38;;;;;;;5.15;3.40;;;30.50;96.00;;;;;;1585851;88;21167;-83
2021/09/27 07:19:35;;;;;;;3.08;2.30;;;30.60;96.00;;;;;;2000028;69;21225;-82
2021/09/27 07:22:08;;;;;;;5.90;2.77;;;30.80;95.70;;;;;;1996486;69;21317;-82
2021/09/27 07:24:41;;;;;;;5.08;2.67;;;30.90;95.40;;;;;;2017444;69;21153;-81
2021/09/27 07:27:15;;;;;;;5.35;3.30;;;30.90;94.90;;;;;;1991155;69;21148;-84
2021/09/27 07:29:59;;;;;;;3.52;2.87;;;30.90;95.00;;;;;;1990848;70;21182;-85
2021/09/27 07:32:43;;;;;;;3.90;3.02;;;30.90;94.70;;;;;;1925754;71;21718;-82
2021/09/27 07:35:31;;;;;;;3.85;2.50;;;30.80;94.80;;;;;;1886067;73;21141;-84
2021/09/27 07:44:40;;;;;;;4.20;2.87;;;30.70;94.70;;;;;;1996741;69;21189;-82
2021/09/27 07:48:20;;;;;;;;;;;;;;;;;;;;;
2021/09/27 07:56:39;;;;;;;4.45;2.70;;;30.90;94.80;;;;;;1697538;82;21269;-81
2021/09/27 08:05:37;;;;;;;5.47;3.10;;;30.70;94.90;;;;;;1907019;74;21130;-82
2021/09/27 08:08:10;;;;;;;4.10;2.72;;;30.70;94.80;;;;;;1910424;74;21073;-84
2021/09/27 08:11:02;;;;;;;3.10;2.30;;;30.70;94.90;;;;;;1904976;74;21129;-81
2021/09/27 08:13:35;;;;;;;3.85;2.62;;;30.70;95.30;;;;;;1902100;73;21146;-82
2021/09/27 08:19:46;;;;;;;4.72;2.40;;;30.60;95.30;;;;;;1899066;73;22037;-78
2021/09/27 08:22:17;;;;;;;3.40;2.70;;;30.60;95.00;;;;;;1909469;75;21708;-80
2021/09/27 08:24:48;;;;;;;5.75;2.30;;;30.60;94.90;;;;;;1914034;75;21171;-83
2021/09/27 08:27:19;;;;;;;6.40;3.00;;;30.60;94.90;;;;;;1899028;74;21225;-81
2021/09/27 08:29:49;;;;;;;5.62;4.60;;;30.70;95.00;;;;;;1899925;75;21147;-81
2021/09/27 08:32:20;;;;;;;10.60;7.87;;;30.60;95.40;;;;;;1869235;76;21136;-81
2021/09/27 08:34:53;;;;;;;5.40;3.58;;;30.60;95.30;;;;;;1873420;76;21190;-81
2021/09/27 08:37:23;;;;;;;8.18;4.55;;;30.60;95.90;;;;;;1911783;74;21100;-83
2021/09/27 08:39:56;;;;;;;5.20;2.80;;;30.60;95.40;;;;;;1898853;74;21159;-83
2021/09/27 08:42:29;;;;;;;4.97;2.80;;;30.60;95.30;;;;;;1907881;74;21107;-82
2021/09/27 08:45:03;;;;;;;5.65;3.12;;;30.60;95.30;;;;;;1908911;74;21179;-83
2021/09/27 08:50:42;;;;;;;8.65;4.50;;;30.60;95.90;;;;;;1904757;73;21193;-83
2021/09/27 08:53:15;;;;;;;9.35;4.95;;;30.50;95.30;;;;;;1906195;73;21171;-85
2021/09/27 08:55:46;;;;;;;3.17;2.60;;;30.50;94.40;;;;;;1906865;74;21189;-83
2021/09/27 08:58:19;;;;;;;9.95;4.67;;;30.50;94.50;;;;;;1909628;74;21152;-83
2021/09/27 09:00:52;;;;;;;4.90;3.10;;;30.50;94.50;;;;;;1893844;74;21175;-83
2021/09/27 09:03:26;;;;;;;5.75;2.72;;;30.50;93.80;;;;;;1930715;73;21163;-83
2021/09/27 09:05:59;;;;;;;5.03;2.45;;;30.50;94.30;;;;;;1912688;73;21176;-84
2021/09/27 09:08:33;;;;;;;6.92;2.80;;;30.50;94.60;;;;;;1882100;75;21136;-84
2021/09/27 09:11:06;;;;;;;6.00;4.97;;;30.50;94.90;;;;;;1874208;74;21160;-85
2021/09/27 09:13:40;;;;;;;4.08;3.17;;;30.40;95.10;;;;;;1875675;75;21094;-84
2021/09/27 09:19:36;;;;;;;6.17;3.15;;;30.30;94.90;;;;;;1880280;75;21116;-81
2021/09/27 09:22:09;;;;;;;6.92;3.37;;;30.20;94.70;;;;;;1874566;76;21132;-82
2021/09/27 09:24:41;;;;;;;4.55;2.90;;;30.20;95.70;;;;;;1875436;76;21191;-86
2021/09/27 09:27:28;;;;;;;4.50;3.42;;;30.10;96.40;;;;;;1874354;76;21500;-82
2021/09/27 09:30:28;;;;;;;6.10;3.42;;;30.00;97.00;;;;;;1845147;76;21135;-82
2021/09/27 09:32:59;;;;;;;5.35;3.20;;;29.90;98.00;;;;;;1870161;76;21120;-82
2021/09/27 09:35:32;;;;;;;4.40;2.70;;;29.80;98.50;;;;;;1882312;76;21183;-83
2021/09/27 09:38:05;;;;;;;6.22;3.20;;;29.60;99.00;;;;;;1872106;76;21184;-85
2021/09/27 09:40:39;;;;;;;4.25;2.80;;;29.50;99.30;;;;;;1878582;76;21277;-83
2021/09/27 09:43:12;;;;;;;5.40;2.77;;;29.30;99.30;;;;;;1872072;76;21156;-83
2021/09/27 09:45:54;;;;;;;4.90;2.92;;;29.20;99.50;;;;;;1874586;75;21076;-83
2021/09/27 09:48:27;;;;;;;4.87;2.60;;;29.10;99.40;;;;;;1869234;76;21109;-82
2021/09/27 09:54:11;;;;;;;5.70;2.60;;;28.90;99.40;;;;;;1796524;78;21183;-82
2021/09/27 09:56:49;;;;;;;4.25;2.05;;;28.80;99.10;;;;;;1819476;77;21291;-81
2021/09/27 09:59:23;;;;;;;2.67;2.10;;;28.80;98.70;;;;;;1802188;78;21262;-83
2021/09/27 10:01:56;;;;;;;4.60;2.27;;;28.70;98.70;;;;;;1862637;74;21664;-83
2021/09/27 10:07:46;;;;;;;5.10;2.47;;;28.60;99.00;;;;;;1898317;74;21597;-82
2021/09/27 10:10:19;;;;;;;4.67;2.70;;;28.50;99.00;;;;;;1919672;75;21147;-82
2021/09/27 10:19:14;;;;;;;4.20;2.33;;;28.40;99.00;;;;;;1913846;75;21552;-85
2021/09/27 10:21:48;;;;;;;6.33;2.70;;;28.40;98.90;;;;;;1879822;75;21151;-83
2021/09/27 10:24:28;;;;;;;5.30;2.83;;;28.40;98.90;;;;;;1892928;75;22555;-81
2021/09/27 10:27:01;;;;;;;7.12;3.37;;;28.30;98.90;;;;;;1889843;75;21225;-84
2021/09/27 10:29:35;;;;;;;8.40;3.15;;;28.40;99.00;;;;;;1899703;75;21154;-83
2021/09/27 10:32:08;;;;;;;5.80;3.40;;;28.30;98.80;;;;;;1957275;72;21109;-82
2021/09/27 10:34:40;;;;;;;5.50;3.20;;;28.30;98.70;;;;;;1960446;72;21104;-82
2021/09/27 10:37:13;;;;;;;4.20;2.67;;;28.30;98.70;;;;;;1973325;71;21734;-82
2021/09/27 10:39:46;;;;;;;7.45;2.95;;;28.30;98.90;;;;;;1972637;72;21101;-82
2021/09/27 10:42:19;;;;;;;4.85;2.95;;;28.20;98.80;;;;;;1963053;72;21111;-80
2021/09/27 10:44:52;;;;;;;4.33;2.75;;;28.10;98.70;;;;;;1940778;72;21141;-80
2021/09/27 10:47:26;;;;;;;4.55;2.30;;;28.10;98.60;;;;;;1937193;73;21256;-80
2021/09/27 10:49:59;;;;;;;5.30;1.85;;;28.10;98.60;;;;;;1948911;73;21171;-79
2021/09/27 10:55:48;;;;;;;4.78;2.40;;;28.00;98.50;;;;;;1897073;74;21091;-79
2021/09/27 10:58:22;;;;;;;5.37;2.58;;;28.00;98.60;;;;;;1923303;73;21222;-81
2021/09/27 11:00:55;;;;;;;7.25;2.62;;;28.00;98.70;;;;;;1919608;73;21552;-80
2021/09/27 11:03:28;;;;;;;7.65;2.42;;;27.90;98.70;;;;;;1925393;72;21132;-80
2021/09/27 11:06:02;;;;;;;3.42;1.85;;;27.80;98.70;;;;;;1943823;72;21178;-80
2021/09/27 11:08:35;;;;;;;4.15;2.00;;;27.80;98.90;;;;;;1959834;72;21124;-80
2021/09/27 11:11:08;;;;;;;6.62;2.10;;;27.80;99.00;;;;;;1939083;73;21128;-80
2021/09/27 11:13:42;;;;;;;3.02;2.00;;;27.80;99.00;;;;;;1929956;72;21187;-82
2021/09/27 11:16:15;;;;;;;4.42;2.30;;;27.80;99.10;;;;;;1927564;72;21221;-79
2021/09/27 11:18:48;;;;;;;5.65;2.10;;;27.80;99.10;;;;;;1922526;73;21599;-79
2021/09/27 11:21:21;;;;;;;4.55;2.02;;;27.70;99.20;;;;;;1945569;72;21131;-80
2021/09/27 11:23:54;;;;;;;4.70;1.95;;;27.70;99.10;;;;;;1938478;73;21085;-80
2021/09/27 11:26:29;;;;;;;5.30;2.40;;;27.70;99.30;;;;;;1917182;72;21496;-81
2021/09/27 11:29:02;;;;;;;4.30;1.90;;;27.60;99.60;;;;;;1917918;74;21147;-81
2021/09/27 11:31:36;;;;;;;5.60;2.65;;;27.60;99.70;;;;;;1923670;72;21155;-80
2021/09/27 11:34:09;;;;;;;4.90;2.35;;;27.60;99.80;;;;;;1943270;73;21725;-80
2021/09/27 11:36:42;;;;;;;4.72;2.35;;;27.60;99.90;;;;;;1916343;73;21197;-82
2021/09/27 11:39:16;;;;;;;5.78;1.90;;;27.60;99.90;;;;;;1935408;72;21146;-88
2021/09/27 11:41:49;;;;;;;5.67;2.25;;;27.50;99.40;;;;;;1908077;69;21138;-91
2021/09/27 11:44:22;;;;;;;4.60;2.00;;;27.50;99.70;;;;;;1934575;72;21316;-90
2021/09/27 11:46:58;;;;;;;5.87;2.00;;;27.40;99.70;;;;;;1933827;71;21072;-92
2021/09/27 11:49:38;;;;;;;4.40;2.05;;;27.40;99.80;;;;;;1940168;70;21084;-92
2021/09/27 11:52:07;;;;;;;5.08;2.20;;;27.30;99.80;;;;;;1953845;71;21139;-90
2021/09/27 11:54:41;;;;;;;4.22;1.87;;;27.30;99.90;;;;;;1917594;72;21263;-92
2021/09/27 11:57:16;;;;;;;6.10;1.95;;;27.20;99.90;;;;;;1931702;72;21117;-91
2021/09/27 11:59:52;;;;;;;5.00;2.05;;;27.20;99.90;;;;;;1930260;72;21145;-92
2021/09/27 12:02:27;;;;;;;4.12;2.10;;;27.20;99.90;;;;;;1930406;72;21173;-91
2021/09/27 12:05:00;;;;;;;3.77;2.25;;;27.10;99.90;;;;;;1878039;75;21143;-92
2021/09/27 12:07:33;;;;;;;4.22;2.30;;;27.10;99.90;;;;;;1947907;72;21139;-92
2021/09/27 12:10:06;;;;;;;6.33;2.75;;;27.00;99.90;;;;;;1949688;72;21248;-88
2021/09/27 12:12:40;;;;;;;5.17;2.75;;;27.00;99.90;;;;;;1949958;72;21131;-91
2021/09/27 12:15:13;;;;;;;7.22;2.80;;;27.00;99.90;;;;;;1930752;72;21055;-87
2021/09/27 12:17:44;;;;;;;5.40;3.12;;;26.90;99.90;;;;;;1940283;72;21189;-92
2021/09/27 12:20:18;;;;;;;5.67;3.45;;;26.90;99.90;;;;;;1900999;72;21216;-91
2021/09/27 12:22:51;;;;;;;7.53;3.42;;;26.80;99.90;;;;;;1931368;72;21179;-90
2021/09/27 12:25:24;;;;;;;10.48;3.95;;;26.80;99.90;;;;;;1947630;72;21127;-90
2021/09/27 12:28:00;;;;;;;10.05;3.70;;;26.80;99.90;;;;;;1928523;73;21085;-90
2021/09/27 12:30:34;;;;;;;6.50;3.80;;;26.80;99.90;;;;;;1937075;72;21120;-90
2021/09/27 12:33:07;;;;;;;7.58;3.62;;;26.80;99.90;;;;;;1953691;72;21104;-90
2021/09/27 12:35:41;;;;;;;6.45;3.33;;;26.80;99.90;;;;;;1950790;72;21653;-89
2021/09/27 12:38:12;;;;;;;9.63;3.27;;;26.80;99.90;;;;;;1937973;72;21068;-90
2021/09/27 12:40:46;;;;;;;6.17;3.52;;;26.90;99.90;;;;;;1950397;73;21128;-90
2021/09/27 12:43:19;;;;;;;5.78;3.00;;;26.90;99.90;;;;;;1928089;72;21104;-90
2021/09/27 12:48:52;;;;;;;5.25;3.35;;;26.90;99.90;;;;;;1952888;72;21638;-90
2021/09/27 12:51:26;;;;;;;4.45;2.98;;;27.00;99.90;;;;;;1930480;71;21111;-91
2021/09/27 12:53:59;;;;;;;5.53;3.27;;;27.00;99.90;;;;;;1933644;72;21578;-91
2021/09/27 12:56:32;;;;;;;4.95;3.20;;;27.00;99.90;;;;;;1920169;72;21523;-87
2021/09/27 12:59:07;;;;;;;5.35;2.52;;;27.00;99.90;;;;;;1891093;73;21134;-91
2021/09/27 13:01:41;;;;;;;8.58;3.45;;;27.00;99.90;;;;;;1907558;72;21096;-91
2021/09/27 13:04:14;;;;;;;5.97;3.10;;;27.10;99.90;;;;;;1927735;74;21178;-91
2021/09/27 13:06:48;;;;;;;4.92;2.83;;;27.10;99.90;;;;;;1933893;74;21116;-91
2021/09/27 13:09:21;;;;;;;6.87;2.83;;;27.20;99.90;;;;;;1938604;73;21077;-91
2021/09/27 13:11:56;;;;;;;4.05;2.42;;;27.20;99.90;;;;;;1939504;72;21062;-89
2021/09/27 13:14:29;;;;;;;6.80;3.22;;;27.20;99.90;;;;;;1969709;72;21042;-91
2021/09/27 13:17:27;;;;;;;5.65;3.10;;;27.30;99.90;;;;;;1945168;69;21263;-86
2021/09/27 13:20:01;;;;;;;5.05;2.80;;;27.30;99.90;;;;;;1956944;71;21173;-87
2021/09/27 13:22:34;;;;;;;4.35;2.72;;;27.30;99.90;;;;;;1921976;72;21113;-87
2021/09/27 13:25:08;;;;;;;6.58;2.87;;;27.30;99.90;;;;;;1914962;71;21072;-88
2021/09/27 13:27:41;;;;;;;6.37;2.75;;;27.30;99.90;;;;;;1910222;73;21142;-90
2021/09/27 13:33:26;;;;;;;6.72;2.98;;;27.30;99.90;;;;;;1812047;77;21183;-90
2021/09/27 13:36:04;;;;;;;5.70;3.00;;;27.30;99.90;;;;;;1795505;78;21662;-91
2021/09/27 13:38:40;;;;;;;5.47;2.70;;;27.30;99.90;;;;;;1797267;77;21123;-90
2021/09/27 13:41:15;;;;;;;4.83;2.62;;;27.30;99.90;;;;;;1802509;77;21782;-91
2021/09/27 13:43:49;;;;;;;6.03;2.90;;;27.20;99.90;;;;;;1838664;77;21183;-91
2021/09/27 13:46:22;;;;;;;5.65;3.00;;;27.10;99.90;;;;;;1842488;77;21273;-91
2021/09/27 13:48:53;;;;;;;6.78;2.62;;;27.10;99.90;;;;;;1808706;77;21745;-90
2021/09/27 13:51:26;;;;;;;9.38;3.85;;;27.10;99.90;;;;;;1805130;77;21222;-91
2021/09/27 13:54:00;;;;;;;8.48;3.27;;;27.10;99.90;;;;;;1816002;77;21280;-91
2021/09/27 13:56:34;;;;;;;4.35;2.77;;;27.10;99.90;;;;;;1815187;77;21186;-91
2021/09/27 14:02:22;;;;;;;6.62;2.98;;;27.10;99.90;;;;;;1818462;77;21103;-90
2021/09/27 14:04:53;;;;;;;12.58;3.77;;;27.00;99.90;;;;;;1798903;77;21605;-91
2021/09/27 14:07:24;;;;;;;5.85;3.52;;;27.00;99.90;;;;;;1784166;79;21167;-91
2021/09/27 14:09:57;;;;;;;6.92;3.15;;;26.90;99.90;;;;;;1840554;74;21238;-89
2021/09/27 14:12:28;;;;;;;4.15;2.67;;;26.90;99.90;;;;;;1943386;73;21061;-89
2021/09/27 14:14:58;;;;;;;6.03;3.10;;;26.90;99.90;;;;;;1921244;73;21096;-89
2021/09/27 14:17:29;;;;;;;7.83;3.20;;;26.80;99.90;;;;;;1934722;73;21124;-90
2021/09/27 14:20:02;;;;;;;7.15;3.35;;;26.90;99.90;;;;;;1936149;73;21307;-90
2021/09/27 14:26:01;;;;;;;6.47;3.10;;;26.90;99.90;;;;;;1902991;74;21150;-91
2021/09/27 14:29:19;;;;;;;7.67;3.00;;;26.90;99.90;;;;;;1934334;73;21151;-90
2021/09/27 14:31:51;;;;;;;4.78;3.00;;;26.90;99.90;;;;;;1929489;72;21123;-90
2021/09/27 14:34:23;;;;;;;5.47;3.55;;;26.90;99.90;;;;;;1939277;72;21073;-89
2021/09/27 14:36:54;;;;;;;6.45;3.00;;;26.90;99.90;;;;;;1941719;72;21150;-91
2021/09/27 14:39:26;;;;;;;8.08;3.40;;;26.90;99.90;;;;;;1938059;72;21131;-90
2021/09/27 14:41:58;;;;;;;7.70;3.10;;;26.90;99.90;;;;;;1934876;72;21133;-89
2021/09/27 14:44:29;;;;;;;4.58;3.00;;;26.80;99.90;;;;;;1910485;72;21183;-90
2021/09/27 14:47:00;;;;;;;5.35;3.30;;;26.90;99.90;;;;;;1944222;72;21218;-90
2021/09/27 14:49:31;;;;;;;5.90;3.25;;;26.90;99.90;;;;;;1919046;74;21138;-90
2021/09/27 14:52:02;;;;;;;6.25;2.80;;;26.90;99.90;;;;;;1926594;73;21144;-89
2021/09/27 14:54:32;;;;;;;7.40;2.85;;;26.90;99.90;;;;;;1953714;72;21139;-89
2021/09/27 14:57:03;;;;;;;7.12;3.33;;;26.90;99.90;;;;;;1916289;74;21119;-90
2021/09/27 14:59:34;;;;;;;9.00;3.22;;;26.90;99.90;;;;;;1925734;73;21265;-90
2021/09/27 15:02:05;;;;;;;7.95;2.95;;;26.90;99.90;;;;;;1928024;73;21157;-90
2021/09/27 15:04:36;;;;;;;3.65;2.55;;;26.90;99.90;;;;;;1949404;72;21524;-89
2021/09/27 15:07:07;;;;;;;4.53;2.50;;;26.90;99.90;;;;;;1955903;72;21598;-90
2021/09/27 15:09:40;;;;;;;7.00;2.98;;;26.90;99.90;;;;;;1961791;72;21702;-89
2021/09/27 15:12:11;;;;;;;7.62;2.98;;;26.90;99.90;;;;;;1966415;72;21169;-90
2021/09/27 15:14:42;;;;;;;7.12;3.08;;;26.90;99.90;;;;;;1910655;72;21236;-90
2021/09/27 15:17:15;;;;;;;6.95;2.80;;;26.90;99.90;;;;;;1958128;72;21103;-89
2021/09/27 15:19:49;;;;;;;5.50;2.80;;;26.80;99.90;;;;;;1933388;72;21169;-91
2021/09/27 15:22:20;;;;;;;6.65;2.70;;;26.80;99.90;;;;;;1973427;72;21174;-89
2021/09/27 15:24:51;;;;;;;4.80;2.80;;;26.70;99.90;;;;;;1956946;72;21135;-90
2021/09/27 15:27:22;;;;;;;8.13;3.30;;;26.60;99.90;;;;;;1960978;72;21138;-89
2021/09/27 15:29:52;;;;;;;4.85;3.00;;;26.60;99.90;;;;;;1960550;72;21152;-90
2021/09/27 15:32:29;;;;;;;12.25;3.98;;;26.60;99.90;;;;;;1954807;73;21090;-90
2021/09/27 15:35:02;;;;;;;7.42;3.10;;;26.60;99.90;;;;;;1932257;72;21595;-88
2021/09/27 15:37:34;;;;;;;5.00;2.95;;;26.60;99.90;;;;;;1940850;72;21062;-88